sensor_id;sensor_type;location;lat;lon;timestamp;P1;durP1;ratioP1;P2;durP2;ratioP2
25824;SDS011;13658;44.534;18.694;2023-05-07T00:00:09;15.48;;;10.15;;
25824;SDS011;13658;44.534;18.694;2023-05-07T00:02:36;16.88;;;11.15;;
25824;SDS011;13658;44.534;18.694;2023-05-07T00:05:03;16.42;;;9.20;;
25824;SDS011;13658;44.534;18.694;2023-05-07T00:07:29;14.38;;;9.90;;
25824;SDS011;13658;44.534;18.694;2023-05-07T00:09:55;18.88;;;11.32;;
25824;SDS011;13658;44.534;18.694;2023-05-07T00:12:21;14.05;;;10.60;;
25824;SDS011;13658;44.534;18.694;2023-05-07T00:14:47;16.48;;;9.93;;
25824;SDS011;13658;44.534;18.694;2023-05-07T00:17:13;15.93;;;10.43;;
25824;SDS011;13658;44.534;18.694;2023-05-07T00:19:39;15.68;;;10.38;;
25824;SDS011;13658;44.534;18.694;2023-05-07T00:22:05;13.52;;;10.15;;
25824;SDS011;13658;44.534;18.694;2023-05-07T00:24:32;15.60;;;11.05;;
25824;SDS011;13658;44.534;18.694;2023-05-07T00:26:58;15.57;;;9.85;;
25824;SDS011;13658;44.534;18.694;2023-05-07T00:29:24;16.20;;;10.00;;
25824;SDS011;13658;44.534;18.694;2023-05-07T00:31:50;14.70;;;9.43;;
25824;SDS011;13658;44.534;18.694;2023-05-07T00:34:16;17.02;;;10.07;;
25824;SDS011;13658;44.534;18.694;2023-05-07T00:36:42;14.82;;;9.20;;
25824;SDS011;13658;44.534;18.694;2023-05-07T00:39:08;11.52;;;8.75;;
25824;SDS011;13658;44.534;18.694;2023-05-07T00:41:34;13.93;;;9.30;;
25824;SDS011;13658;44.534;18.694;2023-05-07T00:44:00;13.25;;;9.05;;
25824;SDS011;13658;44.534;18.694;2023-05-07T00:46:27;16.58;;;9.18;;
25824;SDS011;13658;44.534;18.694;2023-05-07T00:48:56;11.32;;;7.47;;
25824;SDS011;13658;44.534;18.694;2023-05-07T00:51:23;12.00;;;8.30;;
25824;SDS011;13658;44.534;18.694;2023-05-07T00:53:52;13.52;;;8.15;;
25824;SDS011;13658;44.534;18.694;2023-05-07T00:56:20;13.50;;;8.63;;
25824;SDS011;13658;44.534;18.694;2023-05-07T00:58:46;13.55;;;8.30;;
25824;SDS011;13658;44.534;18.694;2023-05-07T01:01:13;10.15;;;7.80;;
25824;SDS011;13658;44.534;18.694;2023-05-07T01:03:41;12.20;;;8.18;;
25824;SDS011;13658;44.534;18.694;2023-05-07T01:06:07;9.95;;;7.50;;
25824;SDS011;13658;44.534;18.694;2023-05-07T01:08:34;10.65;;;7.43;;
25824;SDS011;13658;44.534;18.694;2023-05-07T01:11:00;11.48;;;7.32;;
25824;SDS011;13658;44.534;18.694;2023-05-07T01:13:27;15.18;;;7.90;;
25824;SDS011;13658;44.534;18.694;2023-05-07T01:15:53;9.85;;;7.35;;
25824;SDS011;13658;44.534;18.694;2023-05-07T01:18:20;13.20;;;7.85;;
25824;SDS011;13658;44.534;18.694;2023-05-07T01:20:47;10.52;;;7.68;;
25824;SDS011;13658;44.534;18.694;2023-05-07T01:23:13;12.73;;;7.80;;
25824;SDS011;13658;44.534;18.694;2023-05-07T01:25:40;11.23;;;7.90;;
25824;SDS011;13658;44.534;18.694;2023-05-07T01:28:08;12.15;;;8.02;;
25824;SDS011;13658;44.534;18.694;2023-05-07T01:30:36;10.18;;;7.60;;
25824;SDS011;13658;44.534;18.694;2023-05-07T01:33:11;11.65;;;7.53;;
25824;SDS011;13658;44.534;18.694;2023-05-07T01:35:41;10.25;;;7.60;;
25824;SDS011;13658;44.534;18.694;2023-05-07T01:38:10;9.55;;;7.15;;
25824;SDS011;13658;44.534;18.694;2023-05-07T01:40:37;10.40;;;7.10;;
25824;SDS011;13658;44.534;18.694;2023-05-07T01:43:03;13.32;;;7.53;;
25824;SDS011;13658;44.534;18.694;2023-05-07T01:45:32;10.98;;;7.03;;
25824;SDS011;13658;44.534;18.694;2023-05-07T01:48:00;9.98;;;7.18;;
25824;SDS011;13658;44.534;18.694;2023-05-07T01:50:27;10.88;;;7.70;;
25824;SDS011;13658;44.534;18.694;2023-05-07T01:52:53;11.73;;;7.90;;
25824;SDS011;13658;44.534;18.694;2023-05-07T01:55:20;9.38;;;6.82;;
25824;SDS011;13658;44.534;18.694;2023-05-07T01:57:46;10.50;;;7.53;;
25824;SDS011;13658;44.534;18.694;2023-05-07T02:00:12;14.23;;;7.63;;
25824;SDS011;13658;44.534;18.694;2023-05-07T02:02:41;10.80;;;7.35;;
25824;SDS011;13658;44.534;18.694;2023-05-07T02:05:16;12.55;;;7.68;;
25824;SDS011;13658;44.534;18.694;2023-05-07T02:07:44;12.77;;;8.23;;
25824;SDS011;13658;44.534;18.694;2023-05-07T02:10:12;10.15;;;7.05;;
25824;SDS011;13658;44.534;18.694;2023-05-07T02:12:38;11.55;;;7.60;;
25824;SDS011;13658;44.534;18.694;2023-05-07T02:15:04;8.93;;;6.60;;
25824;SDS011;13658;44.534;18.694;2023-05-07T02:17:31;8.73;;;6.68;;
25824;SDS011;13658;44.534;18.694;2023-05-07T02:19:58;9.63;;;6.72;;
25824;SDS011;13658;44.534;18.694;2023-05-07T02:22:25;10.10;;;6.55;;
25824;SDS011;13658;44.534;18.694;2023-05-07T02:24:51;11.00;;;7.28;;
25824;SDS011;13658;44.534;18.694;2023-05-07T02:27:17;10.98;;;7.50;;
25824;SDS011;13658;44.534;18.694;2023-05-07T02:29:44;11.73;;;8.30;;
25824;SDS011;13658;44.534;18.694;2023-05-07T02:32:10;9.43;;;7.18;;
25824;SDS011;13658;44.534;18.694;2023-05-07T02:34:36;9.52;;;7.50;;
25824;SDS011;13658;44.534;18.694;2023-05-07T02:37:02;13.57;;;8.02;;
25824;SDS011;13658;44.534;18.694;2023-05-07T02:39:28;11.65;;;7.40;;
25824;SDS011;13658;44.534;18.694;2023-05-07T02:41:55;11.50;;;7.55;;
25824;SDS011;13658;44.534;18.694;2023-05-07T02:44:27;12.70;;;8.25;;
25824;SDS011;13658;44.534;18.694;2023-05-07T02:46:56;12.48;;;8.27;;
25824;SDS011;13658;44.534;18.694;2023-05-07T02:49:22;11.75;;;8.32;;
25824;SDS011;13658;44.534;18.694;2023-05-07T02:51:48;13.20;;;8.45;;
25824;SDS011;13658;44.534;18.694;2023-05-07T02:54:19;11.45;;;7.88;;
25824;SDS011;13658;44.534;18.694;2023-05-07T02:56:46;11.98;;;7.85;;
25824;SDS011;13658;44.534;18.694;2023-05-07T02:59:11;11.32;;;8.10;;
25824;SDS011;13658;44.534;18.694;2023-05-07T03:01:40;13.82;;;8.50;;
25824;SDS011;13658;44.534;18.694;2023-05-07T03:04:10;10.15;;;7.00;;
25824;SDS011;13658;44.534;18.694;2023-05-07T03:06:36;11.43;;;7.30;;
25824;SDS011;13658;44.534;18.694;2023-05-07T03:09:02;9.48;;;7.13;;
25824;SDS011;13658;44.534;18.694;2023-05-07T03:11:29;11.77;;;7.88;;
25824;SDS011;13658;44.534;18.694;2023-05-07T03:13:55;10.63;;;7.70;;
25824;SDS011;13658;44.534;18.694;2023-05-07T03:16:21;12.00;;;7.43;;
25824;SDS011;13658;44.534;18.694;2023-05-07T03:18:47;10.68;;;7.18;;
25824;SDS011;13658;44.534;18.694;2023-05-07T03:21:13;10.88;;;7.32;;
25824;SDS011;13658;44.534;18.694;2023-05-07T03:23:40;9.70;;;6.95;;
25824;SDS011;13658;44.534;18.694;2023-05-07T03:26:06;10.40;;;6.57;;
25824;SDS011;13658;44.534;18.694;2023-05-07T03:28:32;9.68;;;6.82;;
25824;SDS011;13658;44.534;18.694;2023-05-07T03:31:02;9.63;;;6.80;;
25824;SDS011;13658;44.534;18.694;2023-05-07T03:33:29;8.38;;;6.55;;
25824;SDS011;13658;44.534;18.694;2023-05-07T03:35:58;9.07;;;7.20;;
25824;SDS011;13658;44.534;18.694;2023-05-07T03:38:25;13.85;;;7.05;;
25824;SDS011;13658;44.534;18.694;2023-05-07T03:40:51;11.20;;;7.03;;
25824;SDS011;13658;44.534;18.694;2023-05-07T03:43:17;12.27;;;6.45;;
25824;SDS011;13658;44.534;18.694;2023-05-07T03:45:48;12.40;;;6.82;;
25824;SDS011;13658;44.534;18.694;2023-05-07T03:48:19;9.93;;;7.00;;
25824;SDS011;13658;44.534;18.694;2023-05-07T03:50:46;12.50;;;7.10;;
25824;SDS011;13658;44.534;18.694;2023-05-07T03:53:14;12.18;;;6.85;;
25824;SDS011;13658;44.534;18.694;2023-05-07T03:55:40;10.85;;;6.75;;
25824;SDS011;13658;44.534;18.694;2023-05-07T03:58:06;10.45;;;7.25;;
25824;SDS011;13658;44.534;18.694;2023-05-07T04:00:32;13.77;;;7.63;;
25824;SDS011;13658;44.534;18.694;2023-05-07T04:03:12;11.07;;;7.20;;
25824;SDS011;13658;44.534;18.694;2023-05-07T04:05:38;10.32;;;6.85;;
25824;SDS011;13658;44.534;18.694;2023-05-07T04:08:04;10.10;;;7.25;;
25824;SDS011;13658;44.534;18.694;2023-05-07T04:10:55;10.27;;;7.22;;
25824;SDS011;13658;44.534;18.694;2023-05-07T04:13:23;10.85;;;7.72;;
25824;SDS011;13658;44.534;18.694;2023-05-07T04:15:51;9.10;;;7.53;;
25824;SDS011;13658;44.534;18.694;2023-05-07T04:18:18;11.73;;;7.60;;
25824;SDS011;13658;44.534;18.694;2023-05-07T04:20:47;12.85;;;7.70;;
25824;SDS011;13658;44.534;18.694;2023-05-07T04:23:14;12.45;;;8.05;;
25824;SDS011;13658;44.534;18.694;2023-05-07T04:25:41;12.73;;;7.70;;
25824;SDS011;13658;44.534;18.694;2023-05-07T04:28:15;14.27;;;7.90;;
25824;SDS011;13658;44.534;18.694;2023-05-07T04:30:42;10.75;;;7.70;;
25824;SDS011;13658;44.534;18.694;2023-05-07T04:33:09;13.45;;;7.65;;
25824;SDS011;13658;44.534;18.694;2023-05-07T04:35:37;11.75;;;7.75;;
25824;SDS011;13658;44.534;18.694;2023-05-07T04:38:04;13.25;;;7.78;;
25824;SDS011;13658;44.534;18.694;2023-05-07T04:40:30;8.85;;;6.70;;
25824;SDS011;13658;44.534;18.694;2023-05-07T04:42:59;14.65;;;7.53;;
25824;SDS011;13658;44.534;18.694;2023-05-07T04:45:29;12.20;;;7.63;;
25824;SDS011;13658;44.534;18.694;2023-05-07T04:47:55;12.88;;;7.72;;
25824;SDS011;13658;44.534;18.694;2023-05-07T04:50:21;8.27;;;6.65;;
25824;SDS011;13658;44.534;18.694;2023-05-07T04:52:51;9.57;;;7.20;;
25824;SDS011;13658;44.534;18.694;2023-05-07T04:55:18;10.77;;;7.47;;
25824;SDS011;13658;44.534;18.694;2023-05-07T04:57:44;12.57;;;7.25;;
25824;SDS011;13658;44.534;18.694;2023-05-07T05:00:13;17.13;;;9.63;;
25824;SDS011;13658;44.534;18.694;2023-05-07T05:02:47;10.27;;;7.87;;
25824;SDS011;13658;44.534;18.694;2023-05-07T05:05:17;11.20;;;7.70;;
25824;SDS011;13658;44.534;18.694;2023-05-07T05:07:44;13.48;;;9.32;;
25824;SDS011;13658;44.534;18.694;2023-05-07T05:10:11;13.63;;;10.18;;
25824;SDS011;13658;44.534;18.694;2023-05-07T05:12:39;11.32;;;8.50;;
25824;SDS011;13658;44.534;18.694;2023-05-07T05:15:05;13.63;;;9.60;;
25824;SDS011;13658;44.534;18.694;2023-05-07T05:17:32;10.70;;;8.60;;
25824;SDS011;13658;44.534;18.694;2023-05-07T05:20:02;13.88;;;8.10;;
25824;SDS011;13658;44.534;18.694;2023-05-07T05:22:29;10.20;;;7.63;;
25824;SDS011;13658;44.534;18.694;2023-05-07T05:24:58;10.60;;;7.53;;
25824;SDS011;13658;44.534;18.694;2023-05-07T05:27:24;12.65;;;8.15;;
25824;SDS011;13658;44.534;18.694;2023-05-07T05:29:50;10.38;;;7.90;;
25824;SDS011;13658;44.534;18.694;2023-05-07T05:32:16;10.27;;;7.18;;
25824;SDS011;13658;44.534;18.694;2023-05-07T05:34:43;8.90;;;7.38;;
25824;SDS011;13658;44.534;18.694;2023-05-07T05:37:10;7.13;;;5.72;;
25824;SDS011;13658;44.534;18.694;2023-05-07T05:39:36;7.53;;;6.07;;
25824;SDS011;13658;44.534;18.694;2023-05-07T05:42:02;8.90;;;6.13;;
25824;SDS011;13658;44.534;18.694;2023-05-07T05:44:28;7.43;;;5.45;;
25824;SDS011;13658;44.534;18.694;2023-05-07T05:46:55;8.95;;;6.43;;
25824;SDS011;13658;44.534;18.694;2023-05-07T05:49:23;9.77;;;6.97;;
25824;SDS011;13658;44.534;18.694;2023-05-07T05:51:49;9.05;;;6.20;;
25824;SDS011;13658;44.534;18.694;2023-05-07T05:54:16;8.48;;;6.25;;
25824;SDS011;13658;44.534;18.694;2023-05-07T05:56:42;7.35;;;6.15;;
25824;SDS011;13658;44.534;18.694;2023-05-07T05:59:08;10.88;;;6.18;;
25824;SDS011;13658;44.534;18.694;2023-05-07T06:01:34;8.93;;;6.50;;
25824;SDS011;13658;44.534;18.694;2023-05-07T06:04:02;7.28;;;5.50;;
25824;SDS011;13658;44.534;18.694;2023-05-07T06:06:29;8.05;;;5.88;;
25824;SDS011;13658;44.534;18.694;2023-05-07T06:08:57;7.40;;;5.60;;
25824;SDS011;13658;44.534;18.694;2023-05-07T06:11:28;9.57;;;6.07;;
25824;SDS011;13658;44.534;18.694;2023-05-07T06:13:55;9.75;;;5.95;;
25824;SDS011;13658;44.534;18.694;2023-05-07T06:16:21;8.10;;;6.03;;
25824;SDS011;13658;44.534;18.694;2023-05-07T06:18:48;11.85;;;5.90;;
25824;SDS011;13658;44.534;18.694;2023-05-07T06:21:15;7.53;;;5.57;;
25824;SDS011;13658;44.534;18.694;2023-05-07T06:23:41;7.82;;;5.22;;
25824;SDS011;13658;44.534;18.694;2023-05-07T06:26:07;8.85;;;6.18;;
25824;SDS011;13658;44.534;18.694;2023-05-07T06:28:38;7.00;;;5.47;;
25824;SDS011;13658;44.534;18.694;2023-05-07T06:31:12;10.70;;;6.07;;
25824;SDS011;13658;44.534;18.694;2023-05-07T06:33:51;8.43;;;6.38;;
25824;SDS011;13658;44.534;18.694;2023-05-07T06:36:18;22.00;;;15.73;;
25824;SDS011;13658;44.534;18.694;2023-05-07T06:38:45;21.52;;;16.05;;
25824;SDS011;13658;44.534;18.694;2023-05-07T06:41:11;15.20;;;12.30;;
25824;SDS011;13658;44.534;18.694;2023-05-07T06:43:38;13.23;;;11.35;;
25824;SDS011;13658;44.534;18.694;2023-05-07T06:49:02;11.00;;;7.13;;
25824;SDS011;13658;44.534;18.694;2023-05-07T06:51:28;8.68;;;6.60;;
25824;SDS011;13658;44.534;18.694;2023-05-07T06:53:58;11.00;;;6.78;;
25824;SDS011;13658;44.534;18.694;2023-05-07T06:56:24;8.05;;;6.57;;
25824;SDS011;13658;44.534;18.694;2023-05-07T06:58:51;9.27;;;6.95;;
25824;SDS011;13658;44.534;18.694;2023-05-07T07:01:17;14.05;;;8.55;;
25824;SDS011;13658;44.534;18.694;2023-05-07T07:03:43;9.25;;;6.72;;
25824;SDS011;13658;44.534;18.694;2023-05-07T07:06:09;8.15;;;6.78;;
25824;SDS011;13658;44.534;18.694;2023-05-07T07:08:36;11.77;;;7.20;;
25824;SDS011;13658;44.534;18.694;2023-05-07T07:11:04;9.35;;;7.47;;
25824;SDS011;13658;44.534;18.694;2023-05-07T07:13:31;9.73;;;8.73;;
25824;SDS011;13658;44.534;18.694;2023-05-07T07:15:57;12.98;;;8.90;;
25824;SDS011;13658;44.534;18.694;2023-05-07T07:18:23;15.05;;;9.90;;
25824;SDS011;13658;44.534;18.694;2023-05-07T07:20:51;14.77;;;10.23;;
25824;SDS011;13658;44.534;18.694;2023-05-07T07:23:17;13.38;;;9.57;;
25824;SDS011;13658;44.534;18.694;2023-05-07T07:25:43;17.95;;;11.95;;
25824;SDS011;13658;44.534;18.694;2023-05-07T07:28:10;15.05;;;11.88;;
25824;SDS011;13658;44.534;18.694;2023-05-07T07:30:37;15.25;;;11.32;;
25824;SDS011;13658;44.534;18.694;2023-05-07T07:33:04;9.73;;;7.25;;
25824;SDS011;13658;44.534;18.694;2023-05-07T07:35:34;14.88;;;9.98;;
25824;SDS011;13658;44.534;18.694;2023-05-07T07:38:01;17.05;;;10.30;;
25824;SDS011;13658;44.534;18.694;2023-05-07T07:40:28;15.65;;;9.52;;
25824;SDS011;13658;44.534;18.694;2023-05-07T07:42:56;15.30;;;7.90;;
25824;SDS011;13658;44.534;18.694;2023-05-07T07:45:23;20.65;;;17.13;;
25824;SDS011;13658;44.534;18.694;2023-05-07T07:47:50;15.48;;;11.77;;
25824;SDS011;13658;44.534;18.694;2023-05-07T07:50:16;13.25;;;7.70;;
25824;SDS011;13658;44.534;18.694;2023-05-07T07:52:43;12.57;;;7.63;;
25824;SDS011;13658;44.534;18.694;2023-05-07T07:55:11;10.70;;;7.93;;
25824;SDS011;13658;44.534;18.694;2023-05-07T07:57:38;9.98;;;7.07;;
25824;SDS011;13658;44.534;18.694;2023-05-07T08:00:05;8.40;;;6.93;;
25824;SDS011;13658;44.534;18.694;2023-05-07T08:02:42;11.45;;;7.68;;
25824;SDS011;13658;44.534;18.694;2023-05-07T08:05:09;12.38;;;7.82;;
25824;SDS011;13658;44.534;18.694;2023-05-07T08:07:35;16.15;;;9.10;;
25824;SDS011;13658;44.534;18.694;2023-05-07T08:10:02;13.60;;;7.75;;
25824;SDS011;13658;44.534;18.694;2023-05-07T08:12:28;10.68;;;7.00;;
25824;SDS011;13658;44.534;18.694;2023-05-07T08:14:56;10.60;;;6.82;;
25824;SDS011;13658;44.534;18.694;2023-05-07T08:17:22;11.98;;;7.47;;
25824;SDS011;13658;44.534;18.694;2023-05-07T08:19:49;10.23;;;6.90;;
25824;SDS011;13658;44.534;18.694;2023-05-07T08:22:15;10.52;;;7.10;;
25824;SDS011;13658;44.534;18.694;2023-05-07T08:24:43;13.40;;;8.70;;
25824;SDS011;13658;44.534;18.694;2023-05-07T08:27:10;12.55;;;7.13;;
25824;SDS011;13658;44.534;18.694;2023-05-07T08:29:38;9.32;;;7.43;;
25824;SDS011;13658;44.534;18.694;2023-05-07T08:32:04;10.02;;;7.22;;
25824;SDS011;13658;44.534;18.694;2023-05-07T08:34:30;11.88;;;7.40;;
25824;SDS011;13658;44.534;18.694;2023-05-07T08:37:00;10.20;;;6.88;;
25824;SDS011;13658;44.534;18.694;2023-05-07T08:39:26;9.30;;;7.65;;
25824;SDS011;13658;44.534;18.694;2023-05-07T08:41:54;9.85;;;6.30;;
25824;SDS011;13658;44.534;18.694;2023-05-07T08:44:26;10.80;;;6.50;;
25824;SDS011;13658;44.534;18.694;2023-05-07T08:46:56;8.32;;;6.82;;
25824;SDS011;13658;44.534;18.694;2023-05-07T08:49:24;11.00;;;8.02;;
25824;SDS011;13658;44.534;18.694;2023-05-07T08:51:51;7.85;;;6.70;;
25824;SDS011;13658;44.534;18.694;2023-05-07T08:54:18;7.00;;;5.93;;
25824;SDS011;13658;44.534;18.694;2023-05-07T08:56:46;5.95;;;5.30;;
25824;SDS011;13658;44.534;18.694;2023-05-07T08:59:13;9.32;;;7.32;;
25824;SDS011;13658;44.534;18.694;2023-05-07T09:01:41;7.15;;;5.53;;
25824;SDS011;13658;44.534;18.694;2023-05-07T09:04:07;6.05;;;5.40;;
25824;SDS011;13658;44.534;18.694;2023-05-07T09:06:35;6.63;;;5.80;;
25824;SDS011;13658;44.534;18.694;2023-05-07T09:09:03;5.65;;;4.78;;
25824;SDS011;13658;44.534;18.694;2023-05-07T09:11:31;5.53;;;4.90;;
25824;SDS011;13658;44.534;18.694;2023-05-07T09:13:59;5.57;;;4.25;;
25824;SDS011;13658;44.534;18.694;2023-05-07T09:16:29;5.82;;;4.80;;
25824;SDS011;13658;44.534;18.694;2023-05-07T09:18:57;5.45;;;4.93;;
25824;SDS011;13658;44.534;18.694;2023-05-07T09:21:25;6.65;;;4.82;;
25824;SDS011;13658;44.534;18.694;2023-05-07T09:23:55;5.45;;;4.45;;
25824;SDS011;13658;44.534;18.694;2023-05-07T09:26:27;4.78;;;4.10;;
25824;SDS011;13658;44.534;18.694;2023-05-07T09:28:54;4.97;;;4.57;;
25824;SDS011;13658;44.534;18.694;2023-05-07T09:31:20;5.13;;;4.63;;
25824;SDS011;13658;44.534;18.694;2023-05-07T09:33:49;5.20;;;4.70;;
25824;SDS011;13658;44.534;18.694;2023-05-07T09:36:16;5.05;;;4.57;;
25824;SDS011;13658;44.534;18.694;2023-05-07T09:38:43;6.57;;;4.72;;
25824;SDS011;13658;44.534;18.694;2023-05-07T09:41:11;5.20;;;4.70;;
25824;SDS011;13658;44.534;18.694;2023-05-07T09:44:04;11.75;;;10.07;;
25824;SDS011;13658;44.534;18.694;2023-05-07T09:46:36;7.40;;;4.93;;
25824;SDS011;13658;44.534;18.694;2023-05-07T09:49:15;12.13;;;9.70;;
25824;SDS011;13658;44.534;18.694;2023-05-07T09:51:49;9.55;;;6.10;;
25824;SDS011;13658;44.534;18.694;2023-05-07T09:54:18;5.72;;;5.13;;
25824;SDS011;13658;44.534;18.694;2023-05-07T09:56:50;5.85;;;5.28;;
25824;SDS011;13658;44.534;18.694;2023-05-07T09:59:19;6.47;;;5.05;;
25824;SDS011;13658;44.534;18.694;2023-05-07T10:01:47;6.05;;;4.68;;
25824;SDS011;13658;44.534;18.694;2023-05-07T10:04:15;6.60;;;4.65;;
25824;SDS011;13658;44.534;18.694;2023-05-07T10:06:44;7.75;;;4.80;;
25824;SDS011;13658;44.534;18.694;2023-05-07T10:09:11;6.18;;;5.18;;
25824;SDS011;13658;44.534;18.694;2023-05-07T10:11:38;6.13;;;4.90;;
25824;SDS011;13658;44.534;18.694;2023-05-07T10:14:05;6.53;;;4.82;;
25824;SDS011;13658;44.534;18.694;2023-05-07T10:16:33;6.68;;;4.43;;
25824;SDS011;13658;44.534;18.694;2023-05-07T10:19:03;4.95;;;4.40;;
25824;SDS011;13658;44.534;18.694;2023-05-07T10:21:31;5.95;;;5.15;;
25824;SDS011;13658;44.534;18.694;2023-05-07T10:24:05;5.97;;;5.22;;
25824;SDS011;13658;44.534;18.694;2023-05-07T10:26:42;6.35;;;4.72;;
25824;SDS011;13658;44.534;18.694;2023-05-07T10:29:25;5.72;;;5.10;;
25824;SDS011;13658;44.534;18.694;2023-05-07T10:32:06;5.00;;;4.60;;
25824;SDS011;13658;44.534;18.694;2023-05-07T10:34:53;7.15;;;4.60;;
25824;SDS011;13658;44.534;18.694;2023-05-07T10:37:22;5.57;;;5.03;;
25824;SDS011;13658;44.534;18.694;2023-05-07T10:39:49;5.60;;;5.10;;
25824;SDS011;13658;44.534;18.694;2023-05-07T10:42:15;5.57;;;5.07;;
25824;SDS011;13658;44.534;18.694;2023-05-07T10:44:47;8.27;;;5.10;;
25824;SDS011;13658;44.534;18.694;2023-05-07T10:52:22;5.10;;;4.70;;
25824;SDS011;13658;44.534;18.694;2023-05-07T11:00:49;5.95;;;5.43;;
25824;SDS011;13658;44.534;18.694;2023-05-07T11:03:22;5.25;;;4.82;;
25824;SDS011;13658;44.534;18.694;2023-05-07T11:06:15;8.60;;;5.10;;
25824;SDS011;13658;44.534;18.694;2023-05-07T11:09:07;5.22;;;4.75;;
25824;SDS011;13658;44.534;18.694;2023-05-07T11:17:21;6.10;;;5.28;;
25824;SDS011;13658;44.534;18.694;2023-05-07T11:19:55;6.32;;;4.90;;
25824;SDS011;13658;44.534;18.694;2023-05-07T11:22:36;6.70;;;4.82;;
25824;SDS011;13658;44.534;18.694;2023-05-07T11:25:34;5.22;;;4.63;;
25824;SDS011;13658;44.534;18.694;2023-05-07T11:28:12;5.75;;;4.40;;
25824;SDS011;13658;44.534;18.694;2023-05-07T11:30:45;5.15;;;4.40;;
25824;SDS011;13658;44.534;18.694;2023-05-07T11:33:16;7.13;;;5.15;;
25824;SDS011;13658;44.534;18.694;2023-05-07T11:35:44;5.30;;;4.80;;
25824;SDS011;13658;44.534;18.694;2023-05-07T11:38:13;6.80;;;5.57;;
25824;SDS011;13658;44.534;18.694;2023-05-07T11:40:49;5.80;;;5.20;;
25824;SDS011;13658;44.534;18.694;2023-05-07T11:43:20;6.97;;;6.05;;
25824;SDS011;13658;44.534;18.694;2023-05-07T11:45:46;5.70;;;5.10;;
25824;SDS011;13658;44.534;18.694;2023-05-07T11:48:13;9.30;;;6.18;;
25824;SDS011;13658;44.534;18.694;2023-05-07T11:50:54;8.15;;;7.40;;
25824;SDS011;13658;44.534;18.694;2023-05-07T11:53:36;6.50;;;4.93;;
25824;SDS011;13658;44.534;18.694;2023-05-07T11:58:34;6.05;;;4.82;;
25824;SDS011;13658;44.534;18.694;2023-05-07T12:01:00;6.28;;;5.68;;
25824;SDS011;13658;44.534;18.694;2023-05-07T12:03:26;5.45;;;4.90;;
25824;SDS011;13658;44.534;18.694;2023-05-07T12:05:52;11.80;;;9.88;;
25824;SDS011;13658;44.534;18.694;2023-05-07T12:08:19;13.07;;;11.13;;
25824;SDS011;13658;44.534;18.694;2023-05-07T12:10:47;7.55;;;6.47;;
25824;SDS011;13658;44.534;18.694;2023-05-07T12:13:23;6.43;;;4.80;;
25824;SDS011;13658;44.534;18.694;2023-05-07T12:15:54;7.57;;;5.00;;
25824;SDS011;13658;44.534;18.694;2023-05-07T12:18:21;8.30;;;4.65;;
25824;SDS011;13658;44.534;18.694;2023-05-07T12:20:48;7.18;;;5.43;;
25824;SDS011;13658;44.534;18.694;2023-05-07T12:23:15;6.55;;;5.10;;
25824;SDS011;13658;44.534;18.694;2023-05-07T12:25:42;7.30;;;5.53;;
25824;SDS011;13658;44.534;18.694;2023-05-07T12:28:18;6.38;;;5.55;;
25824;SDS011;13658;44.534;18.694;2023-05-07T12:30:46;6.78;;;5.35;;
25824;SDS011;13658;44.534;18.694;2023-05-07T12:33:16;6.07;;;5.45;;
25824;SDS011;13658;44.534;18.694;2023-05-07T12:35:44;6.13;;;5.10;;
25824;SDS011;13658;44.534;18.694;2023-05-07T12:38:11;5.78;;;5.00;;
25824;SDS011;13658;44.534;18.694;2023-05-07T12:40:42;7.93;;;5.35;;
25824;SDS011;13658;44.534;18.694;2023-05-07T12:43:17;8.52;;;5.88;;
25824;SDS011;13658;44.534;18.694;2023-05-07T12:45:50;6.30;;;5.70;;
25824;SDS011;13658;44.534;18.694;2023-05-07T12:48:17;8.75;;;6.50;;
25824;SDS011;13658;44.534;18.694;2023-05-07T12:50:45;6.43;;;5.22;;
25824;SDS011;13658;44.534;18.694;2023-05-07T12:53:25;5.63;;;5.00;;
25824;SDS011;13658;44.534;18.694;2023-05-07T12:55:52;8.07;;;5.20;;
25824;SDS011;13658;44.534;18.694;2023-05-07T12:58:20;5.20;;;4.70;;
25824;SDS011;13658;44.534;18.694;2023-05-07T13:00:53;5.95;;;5.40;;
25824;SDS011;13658;44.534;18.694;2023-05-07T13:03:27;13.30;;;10.25;;
25824;SDS011;13658;44.534;18.694;2023-05-07T13:05:58;6.43;;;5.30;;
25824;SDS011;13658;44.534;18.694;2023-05-07T13:08:36;8.20;;;5.18;;
25824;SDS011;13658;44.534;18.694;2023-05-07T13:11:07;7.65;;;6.65;;
25824;SDS011;13658;44.534;18.694;2023-05-07T13:13:34;7.43;;;6.32;;
25824;SDS011;13658;44.534;18.694;2023-05-07T13:16:02;5.00;;;4.53;;
25824;SDS011;13658;44.534;18.694;2023-05-07T13:18:30;10.45;;;5.05;;
25824;SDS011;13658;44.534;18.694;2023-05-07T13:20:56;5.25;;;4.75;;
25824;SDS011;13658;44.534;18.694;2023-05-07T13:23:23;6.45;;;4.70;;
25824;SDS011;13658;44.534;18.694;2023-05-07T13:25:49;5.70;;;4.75;;
25824;SDS011;13658;44.534;18.694;2023-05-07T13:28:16;5.38;;;4.65;;
25824;SDS011;13658;44.534;18.694;2023-05-07T13:30:42;6.93;;;4.50;;
25824;SDS011;13658;44.534;18.694;2023-05-07T13:33:08;6.50;;;4.45;;
25824;SDS011;13658;44.534;18.694;2023-05-07T13:35:35;5.20;;;4.70;;
25824;SDS011;13658;44.534;18.694;2023-05-07T13:38:01;8.23;;;5.15;;
25824;SDS011;13658;44.534;18.694;2023-05-07T13:40:27;6.60;;;5.10;;
25824;SDS011;13658;44.534;18.694;2023-05-07T13:42:53;6.32;;;5.00;;
25824;SDS011;13658;44.534;18.694;2023-05-07T13:45:19;7.25;;;6.55;;
25824;SDS011;13658;44.534;18.694;2023-05-07T13:47:46;7.13;;;6.43;;
25824;SDS011;13658;44.534;18.694;2023-05-07T13:50:14;5.53;;;5.03;;
25824;SDS011;13658;44.534;18.694;2023-05-07T13:52:41;5.20;;;4.70;;
25824;SDS011;13658;44.534;18.694;2023-05-07T13:55:08;9.95;;;6.95;;
25824;SDS011;13658;44.534;18.694;2023-05-07T13:57:36;6.95;;;5.15;;
25824;SDS011;13658;44.534;18.694;2023-05-07T14:00:03;5.22;;;4.72;;
25824;SDS011;13658;44.534;18.694;2023-05-07T14:02:40;8.15;;;4.53;;
25824;SDS011;13658;44.534;18.694;2023-05-07T14:05:06;11.85;;;9.80;;
25824;SDS011;13658;44.534;18.694;2023-05-07T14:07:32;7.55;;;4.90;;
25824;SDS011;13658;44.534;18.694;2023-05-07T14:09:59;13.77;;;8.70;;
25824;SDS011;13658;44.534;18.694;2023-05-07T14:12:25;18.63;;;12.48;;
25824;SDS011;13658;44.534;18.694;2023-05-07T14:14:51;5.22;;;4.50;;
25824;SDS011;13658;44.534;18.694;2023-05-07T14:17:17;7.45;;;5.78;;
25824;SDS011;13658;44.534;18.694;2023-05-07T14:19:43;5.25;;;4.75;;
25824;SDS011;13658;44.534;18.694;2023-05-07T14:22:09;10.65;;;8.75;;
25824;SDS011;13658;44.534;18.694;2023-05-07T14:24:35;7.20;;;5.50;;
25824;SDS011;13658;44.534;18.694;2023-05-07T14:27:01;5.68;;;4.40;;
25824;SDS011;13658;44.534;18.694;2023-05-07T14:29:28;5.20;;;4.22;;
25824;SDS011;13658;44.534;18.694;2023-05-07T14:31:53;4.80;;;4.30;;
25824;SDS011;13658;44.534;18.694;2023-05-07T14:34:20;6.68;;;4.32;;
25824;SDS011;13658;44.534;18.694;2023-05-07T14:36:46;6.00;;;4.47;;
25824;SDS011;13658;44.534;18.694;2023-05-07T14:39:11;10.32;;;8.27;;
25824;SDS011;13658;44.534;18.694;2023-05-07T14:41:38;6.68;;;5.18;;
25824;SDS011;13658;44.534;18.694;2023-05-07T14:44:04;8.95;;;7.72;;
25824;SDS011;13658;44.534;18.694;2023-05-07T14:46:30;6.18;;;5.05;;
25824;SDS011;13658;44.534;18.694;2023-05-07T14:48:56;7.47;;;4.60;;
25824;SDS011;13658;44.534;18.694;2023-05-07T14:51:22;5.47;;;4.65;;
25824;SDS011;13658;44.534;18.694;2023-05-07T14:53:50;5.07;;;4.22;;
25824;SDS011;13658;44.534;18.694;2023-05-07T14:56:16;6.65;;;4.68;;